createdAt,value
2023-04-08T00:00:44.615Z,100569.37
2023-04-08T00:01:46.907Z,100569.50
2023-04-08T00:02:49.354Z,100564.19
2023-04-08T00:03:51.719Z,100567.84
2023-04-08T00:04:54.235Z,100566.91
2023-04-08T00:05:56.488Z,100564.39
2023-04-08T00:06:59.649Z,100561.73
2023-04-08T00:08:02.010Z,100566.25
2023-04-08T00:09:04.180Z,100556.58
2023-04-08T00:10:08.203Z,100563.59
2023-04-08T00:11:10.505Z,100563.59
2023-04-08T00:12:12.687Z,100560.94
2023-04-08T00:13:14.862Z,100561.89
2023-04-08T00:14:17.036Z,100567.91
2023-04-08T00:15:20.961Z,100565.19
2023-04-08T00:16:23.343Z,100572.36
2023-04-08T00:17:25.612Z,100568.77
2023-04-08T00:18:27.688Z,100563.59
2023-04-08T00:19:29.817Z,100558.27
2023-04-08T00:20:32.102Z,100562.83
2023-04-08T00:21:34.299Z,100561.03
2023-04-08T00:22:36.702Z,100561.89
2023-04-08T00:23:38.873Z,100555.84
2023-04-08T00:24:40.945Z,100556.65
2023-04-08T00:25:43.280Z,100556.72
2023-04-08T00:26:46.032Z,100547.94
2023-04-08T00:27:48.279Z,100549.60
2023-04-08T00:28:51.196Z,100554.19
2023-04-08T00:29:53.744Z,100551.40
2023-04-08T00:30:56.508Z,100556.84
2023-04-08T00:31:58.961Z,100554.19
2023-04-08T00:33:02.532Z,100551.53
2023-04-08T00:34:04.901Z,100549.53
2023-04-08T00:35:07.612Z,100562.03
2023-04-08T00:36:10.857Z,100547.81
2023-04-08T00:37:12.902Z,100548.73
2023-04-08T00:38:15.278Z,100551.33
2023-04-08T00:39:17.447Z,100547.81
2023-04-08T00:40:20.831Z,100553.27
2023-04-08T00:41:23.099Z,100540.90
2023-04-08T00:42:25.640Z,100542.69
2023-04-08T00:43:27.968Z,100546.22
2023-04-08T00:44:30.141Z,100542.77
2023-04-08T00:45:33.509Z,100541.03
2023-04-08T00:46:38.606Z,100538.37
2023-04-08T00:47:41.094Z,100542.96
2023-04-08T00:48:43.916Z,100543.03
2023-04-08T00:49:46.166Z,100543.89
2023-04-08T00:50:50.418Z,100543.03
2023-04-08T00:51:55.971Z,100543.76
2023-04-08T00:53:03.054Z,100539.38
2023-04-08T00:54:10.846Z,100541.16
2023-04-08T00:55:15.692Z,100539.44
2023-04-08T00:56:24.969Z,100538.51
2023-04-08T00:57:34.423Z,100534.92
2023-04-08T00:58:41.537Z,100539.17
2023-04-08T00:59:46.135Z,100540.90
2023-04-08T01:00:54.739Z,100540.03
2023-04-08T01:02:02.086Z,100540.03
2023-04-08T01:03:20.545Z,100540.90
2023-04-08T01:05:58.502Z,100530.34
2023-04-08T01:07:04.474Z,100530.47
2023-04-08T01:08:09.566Z,100539.03
2023-04-08T01:09:15.045Z,100536.38
2023-04-08T01:10:24.934Z,100532.86
2023-04-08T01:11:30.808Z,100538.17
2023-04-08T01:12:36.993Z,100533.72
2023-04-08T01:13:41.815Z,100538.11
2023-04-08T01:14:46.542Z,100539.17
2023-04-08T01:15:49.610Z,100535.45
2023-04-08T01:16:58.411Z,100535.65
2023-04-08T01:18:03.234Z,100545.22
2023-04-08T01:19:08.310Z,100536.52
2023-04-08T01:20:14.670Z,100538.31
2023-04-08T01:21:19.751Z,100543.62
2023-04-08T01:22:53.804Z,100546.22
2023-04-08T01:24:26.948Z,100542.77
2023-04-08T01:25:33.594Z,100546.08
2023-04-08T01:26:36.741Z,100550.53
2023-04-08T01:27:39.372Z,100537.31
2023-04-08T01:28:41.828Z,100543.48
2023-04-08T01:29:46.697Z,100538.37
2023-04-08T01:30:50.164Z,100534.85
2023-04-08T01:31:54.887Z,100536.58
2023-04-08T01:32:59.471Z,100548.14
2023-04-08T01:34:04.388Z,100542.77
2023-04-08T01:35:08.870Z,100542.77
2023-04-08T01:36:12.172Z,100537.31
2023-04-08T01:37:15.519Z,100541.77
2023-04-08T01:38:20.244Z,100539.03
2023-04-08T01:39:25.809Z,100539.90
2023-04-08T01:40:29.197Z,100545.28
2023-04-08T01:41:35.084Z,100548.80
2023-04-08T01:42:38.101Z,100544.35
2023-04-08T01:43:43.469Z,100549.67
2023-04-08T01:44:46.390Z,100549.67
2023-04-08T01:45:49.921Z,100550.53
2023-04-08T01:46:54.739Z,100545.15
2023-04-08T01:47:59.433Z,100551.40
2023-04-08T01:49:02.085Z,100543.36
2023-04-08T01:50:06.199Z,100539.83
2023-04-08T01:51:09.421Z,100544.35
2023-04-08T01:52:12.955Z,100549.67
2023-04-08T01:53:15.186Z,100542.63
2023-04-08T01:54:17.651Z,100537.45
2023-04-08T01:55:20.052Z,100539.03
2023-04-08T01:56:23.090Z,100539.90
2023-04-08T01:57:29.151Z,100538.23
2023-04-08T01:59:45.118Z,100538.73
2023-04-08T02:00:48.866Z,100544.98
2023-04-08T02:01:52.895Z,100543.03
2023-04-08T02:02:56.804Z,100548.28
2023-04-08T02:04:01.505Z,100543.13
2023-04-08T02:05:04.273Z,100544.86
2023-04-08T02:06:07.077Z,100545.78
2023-04-08T02:07:09.354Z,100546.65
2023-04-08T02:08:12.177Z,100553.66
2023-04-08T02:09:14.263Z,100548.34
2023-04-08T02:10:16.524Z,100547.58
2023-04-08T02:11:18.698Z,100548.34
2023-04-08T02:12:21.412Z,100546.65
2023-04-08T02:13:23.748Z,100556.42
2023-04-08T02:14:25.939Z,100551.97
2023-04-08T02:16:51.298Z,100547.94
2023-04-08T02:17:57.225Z,100547.91
2023-04-08T02:20:29.717Z,100553.27
2023-04-08T02:21:35.606Z,100548.78
2023-04-08T02:23:01.197Z,100545.13
2023-04-08T02:24:07.000Z,100548.52
2023-04-08T02:25:12.907Z,100542.20
2023-04-08T02:26:16.941Z,100545.63
2023-04-08T02:27:20.152Z,100544.92
2023-04-08T02:28:25.170Z,100536.15
2023-04-08T02:29:30.987Z,100537.08
2023-04-08T02:30:35.475Z,100541.60
2023-04-08T02:31:40.834Z,100534.42
2023-04-08T02:32:45.877Z,100534.56
2023-04-08T02:33:50.701Z,100533.70
2023-04-08T02:34:55.581Z,100538.95
2023-04-08T02:35:59.312Z,100536.28
2023-04-08T02:37:02.769Z,100545.05
2023-04-08T02:38:05.251Z,100544.26
2023-04-08T02:39:07.866Z,100544.33
2023-04-08T02:40:28.189Z,100548.52
2023-04-08T02:41:31.414Z,100548.64
2023-04-08T02:42:33.659Z,100548.52
2023-04-08T02:43:35.836Z,100542.33
2023-04-08T02:44:39.956Z,100543.33
2023-04-08T02:45:43.870Z,100548.78
2023-04-08T02:46:46.252Z,100555.09
2023-04-08T02:47:48.623Z,100551.56
2023-04-08T02:48:51.096Z,100552.49
2023-04-08T02:49:53.611Z,100553.30
2023-04-08T02:50:56.001Z,100553.23
2023-04-08T02:51:58.267Z,100558.61
2023-04-08T02:53:00.886Z,100547.05
2023-04-08T02:54:03.292Z,100548.78
2023-04-08T02:55:06.612Z,100554.95
2023-04-08T02:56:12.452Z,100550.57
2023-04-08T02:57:14.655Z,100550.64
2023-04-08T02:58:17.116Z,100554.22
2023-04-08T02:59:19.807Z,100548.91
2023-04-08T03:00:22.080Z,100555.09
2023-04-08T03:01:24.432Z,100549.70
2023-04-08T03:02:26.739Z,100552.36
2023-04-08T03:03:29.123Z,100553.23
2023-04-08T03:04:31.403Z,100555.82
2023-04-08T03:05:33.724Z,100551.37
2023-04-08T03:06:36.197Z,100550.44
2023-04-08T03:07:38.847Z,100552.23
2023-04-08T03:08:41.064Z,100555.02
2023-04-08T03:09:43.723Z,100556.81
2023-04-08T03:10:46.264Z,100558.61
2023-04-08T03:11:48.471Z,100561.13
2023-04-08T03:12:50.729Z,100560.27
2023-04-08T03:13:53.030Z,100564.59
2023-04-08T03:14:55.733Z,100562.06
2023-04-08T03:15:57.937Z,100561.20
2023-04-08T03:17:00.516Z,100563.92
2023-04-08T03:18:04.369Z,100559.41
2023-04-08T03:19:07.116Z,100555.82
2023-04-08T03:20:10.484Z,100558.55
2023-04-08T03:21:13.863Z,100561.13
2023-04-08T03:22:16.137Z,100556.75
2023-04-08T03:23:18.421Z,100555.82
2023-04-08T03:24:21.126Z,100553.23
2023-04-08T03:25:23.359Z,100550.64
2023-04-08T03:26:25.907Z,100554.22
2023-04-08T03:27:28.444Z,100556.81
2023-04-08T03:28:30.630Z,100552.23
2023-04-08T03:29:32.954Z,100552.36
2023-04-08T03:30:35.872Z,100552.36
2023-04-08T03:31:38.353Z,100553.30
2023-04-08T03:32:40.634Z,100556.88
2023-04-08T03:33:42.976Z,100545.39
2023-04-08T03:34:45.446Z,100552.43
2023-04-08T03:35:47.687Z,100541.73
2023-04-08T03:36:50.018Z,100554.09
2023-04-08T03:37:52.153Z,100554.82
2023-04-08T03:38:54.520Z,100550.38
2023-04-08T03:39:57.458Z,100557.48
2023-04-08T03:41:00.127Z,100561.87
2023-04-08T03:42:02.889Z,100566.31
2023-04-08T03:43:04.986Z,100568.05
2023-04-08T03:44:07.058Z,100565.39
2023-04-08T03:45:09.874Z,100569.77
2023-04-08T03:46:12.302Z,100563.59
2023-04-08T03:47:14.464Z,100566.31
2023-04-08T03:48:16.658Z,100563.79
2023-04-08T03:49:18.740Z,100564.66
2023-04-08T03:50:21.528Z,100565.72
2023-04-08T03:51:23.813Z,100566.58
2023-04-08T03:52:26.484Z,100562.13
2023-04-08T03:53:28.785Z,100572.69
2023-04-08T03:54:31.029Z,100571.03
2023-04-08T03:55:33.746Z,100567.44
2023-04-08T03:56:36.065Z,100569.23
2023-04-08T03:57:38.116Z,100575.48
2023-04-08T03:58:40.316Z,100580.80
2023-04-08T03:59:42.548Z,100579.07
2023-04-08T04:00:44.800Z,100575.64
2023-04-08T04:01:47.019Z,100568.44
2023-04-08T04:02:49.402Z,100568.44
2023-04-08T04:03:52.259Z,100574.69
2023-04-08T04:04:54.781Z,100572.03
2023-04-08T04:05:57.195Z,100566.71
2023-04-08T04:06:59.720Z,100573.05
2023-04-08T04:08:02.424Z,100573.92
2023-04-08T04:09:04.427Z,100565.95
2023-04-08T04:10:08.090Z,100574.84
2023-04-08T04:11:10.318Z,100579.36
2023-04-08T04:12:12.581Z,100575.84
2023-04-08T04:13:14.763Z,100570.53
2023-04-08T04:14:17.451Z,100583.81
2023-04-08T04:15:19.541Z,100576.70
2023-04-08T04:16:21.883Z,100575.05
2023-04-08T04:17:24.609Z,100572.31
2023-04-08T04:18:26.788Z,100582.82
2023-04-08T04:19:32.168Z,100577.57
2023-04-08T04:20:34.591Z,100578.30
2023-04-08T04:21:36.757Z,100576.58
2023-04-08T04:22:39.122Z,100579.23
2023-04-08T04:23:41.308Z,100579.23
2023-04-08T04:24:48.397Z,100583.62
2023-04-08T04:25:50.637Z,100583.69
2023-04-08T04:26:52.904Z,100580.96
2023-04-08T04:27:55.556Z,100584.38
2023-04-08T04:28:57.721Z,100582.82
2023-04-08T04:30:00.363Z,100593.45
2023-04-08T04:31:02.576Z,100587.20
2023-04-08T04:32:05.164Z,100594.38
2023-04-08T04:33:08.647Z,100589.86
2023-04-08T04:34:10.849Z,100595.17
2023-04-08T04:35:13.136Z,100592.36
2023-04-08T04:36:16.566Z,100594.95
2023-04-08T04:37:18.724Z,100595.02
2023-04-08T04:38:20.928Z,100592.29
2023-04-08T04:39:23.599Z,100595.02
2023-04-08T04:40:25.903Z,100589.56
2023-04-08T04:41:27.975Z,100588.77
2023-04-08T04:42:30.453Z,100597.48
2023-04-08T04:43:32.650Z,100599.27
2023-04-08T04:44:34.834Z,100587.71
2023-04-08T04:45:37.606Z,100602.59
2023-04-08T04:46:39.958Z,100599.94
2023-04-08T04:47:42.233Z,100599.08
2023-04-08T04:48:44.472Z,100609.41
2023-04-08T04:49:46.657Z,100603.39
2023-04-08T04:50:56.465Z,100606.82
2023-04-08T04:51:58.670Z,100603.23
2023-04-08T04:53:00.733Z,100606.75
2023-04-08T04:54:03.442Z,100606.63
2023-04-08T04:55:06.362Z,100613.73
2023-04-08T04:56:09.105Z,100609.22
2023-04-08T04:57:11.171Z,100608.22
2023-04-08T04:58:13.348Z,100611.74
2023-04-08T04:59:15.606Z,100606.13
2023-04-08T05:00:19.092Z,100617.86
2023-04-08T05:01:23.384Z,100611.61
2023-04-08T05:02:26.043Z,100611.45
2023-04-08T05:03:29.026Z,100620.22
2023-04-08T05:04:31.634Z,100619.22
2023-04-08T05:05:33.888Z,100619.22
2023-04-08T05:06:36.296Z,100626.34
2023-04-08T05:07:38.713Z,100619.16
2023-04-08T05:08:40.867Z,100623.68
2023-04-08T05:09:42.815Z,100620.82
2023-04-08T05:10:45.624Z,100619.95
2023-04-08T05:11:48.249Z,100619.03
2023-04-08T05:12:50.516Z,100617.30
2023-04-08T05:13:52.866Z,100610.25
2023-04-08T05:14:54.939Z,100618.23
2023-04-08T05:15:57.586Z,100621.81
2023-04-08T05:17:00.011Z,100618.23
2023-04-08T05:18:02.136Z,100616.37
2023-04-08T05:19:05.035Z,100618.89
2023-04-08T05:20:10.059Z,100620.63
2023-04-08T05:21:12.284Z,100622.42
2023-04-08T05:22:14.384Z,100624.21
2023-04-08T05:23:16.633Z,100624.98
2023-04-08T05:24:18.807Z,100623.05
2023-04-08T05:25:20.873Z,100620.39
2023-04-08T05:26:23.115Z,100621.25
2023-04-08T05:27:25.333Z,100617.66
2023-04-08T05:28:27.587Z,100620.19
2023-04-08T05:29:30.154Z,100618.53
2023-04-08T05:30:32.815Z,100609.62
2023-04-08T05:31:35.161Z,100613.94
2023-04-08T05:32:37.456Z,100617.39
2023-04-08T05:33:39.539Z,100617.22
2023-04-08T05:34:42.903Z,100621.71
2023-04-08T05:35:45.614Z,100618.19
2023-04-08T05:37:58.705Z,100621.83
2023-04-08T05:39:02.121Z,100620.75
2023-04-08T05:40:06.355Z,100614.42
2023-04-08T05:41:08.581Z,100623.13
2023-04-08T05:42:10.629Z,100621.34
2023-04-08T05:43:13.455Z,100623.86
2023-04-08T05:44:15.783Z,100622.94
2023-04-08T05:45:18.033Z,100624.59
2023-04-08T05:46:20.665Z,100620.03
2023-04-08T05:47:22.822Z,100616.51
2023-04-08T05:48:25.585Z,100619.03
2023-04-08T05:49:28.161Z,100625.14
2023-04-08T05:50:30.521Z,100619.69
2023-04-08T05:51:33.195Z,100616.95
2023-04-08T05:52:35.369Z,100624.01
2023-04-08T05:53:37.563Z,100622.04
2023-04-08T05:54:45.002Z,100624.70
2023-04-08T05:55:47.651Z,100621.83
2023-04-08T05:56:50.280Z,100624.28
2023-04-08T05:57:54.719Z,100618.89
2023-04-08T06:00:33.502Z,100622.54
2023-04-08T06:01:37.543Z,100623.10
2023-04-08T06:02:43.139Z,100622.89
2023-04-08T06:03:53.622Z,100621.95
2023-04-08T06:04:57.895Z,100632.47
2023-04-08T06:07:10.650Z,100621.10
2023-04-08T06:08:12.839Z,100627.00
2023-04-08T06:09:14.926Z,100621.50
2023-04-08T06:10:18.115Z,100624.95
2023-04-08T06:11:20.307Z,100627.47
2023-04-08T06:12:22.426Z,100627.55
2023-04-08T06:13:25.139Z,100622.97
2023-04-08T06:14:27.294Z,100621.10
2023-04-08T06:15:29.492Z,100621.97
2023-04-08T06:16:31.668Z,100625.42
2023-04-08T06:17:35.987Z,100628.08
2023-04-08T06:18:38.444Z,100629.70
2023-04-08T06:19:40.626Z,100627.84
2023-04-08T06:20:43.411Z,100630.20
2023-04-08T06:21:45.555Z,100628.34
2023-04-08T06:22:47.747Z,100631.86
2023-04-08T06:23:49.800Z,100627.22
2023-04-08T06:24:51.961Z,100630.82
2023-04-08T06:25:54.269Z,100634.27
2023-04-08T06:26:56.555Z,100635.14
2023-04-08T06:27:58.761Z,100639.45
2023-04-08T06:29:00.936Z,100640.25
2023-04-08T06:30:03.278Z,100637.58
2023-04-08T06:31:05.623Z,100640.17
2023-04-08T06:32:07.812Z,100631.17
2023-04-08T06:33:10.513Z,100642.62
2023-04-08T06:34:13.153Z,100640.81
2023-04-08T06:35:15.490Z,100631.78
2023-04-08T06:36:17.671Z,100636.17
2023-04-08T06:37:20.642Z,100636.96
2023-04-08T06:38:22.902Z,100649.34
2023-04-08T06:39:25.101Z,100647.47
2023-04-08T06:40:27.678Z,100644.88
2023-04-08T06:41:30.362Z,100650.93
2023-04-08T06:42:34.485Z,100649.20
2023-04-08T06:43:44.533Z,100655.39
2023-04-08T06:44:46.772Z,100653.45
2023-04-08T06:45:49.385Z,100649.84
2023-04-08T06:46:52.233Z,100648.88
2023-04-08T06:47:54.930Z,100656.79
2023-04-08T06:48:57.063Z,100653.11
2023-04-08T06:49:59.255Z,100661.03
2023-04-08T06:51:02.048Z,100657.28
2023-04-08T06:52:04.287Z,100659.88
2023-04-08T06:53:06.348Z,100657.02
2023-04-08T06:54:09.077Z,100661.42
2023-04-08T06:55:11.461Z,100654.21
2023-04-08T06:56:14.394Z,100656.65
2023-04-08T06:57:16.473Z,100653.83
2023-04-08T06:58:18.648Z,100652.81
2023-04-08T06:59:20.821Z,100659.02
2023-04-08T07:00:24.178Z,100659.69
2023-04-08T07:01:26.493Z,100656.09
2023-04-08T07:02:28.835Z,100659.54
2023-04-08T07:03:31.110Z,100653.19
2023-04-08T07:04:33.351Z,100656.72
2023-04-08T07:05:35.720Z,100660.95
2023-04-08T07:06:38.535Z,100664.38
2023-04-08T07:07:40.943Z,100657.16
2023-04-08T07:08:43.110Z,100657.02
2023-04-08T07:09:45.308Z,100666.66
2023-04-08T07:10:47.677Z,100662.04
2023-04-08T07:11:50.254Z,100663.77
2023-04-08T07:12:53.581Z,100665.48
2023-04-08T07:13:55.792Z,100660.98
2023-04-08T07:14:58.375Z,100668.05
2023-04-08T07:16:00.568Z,100664.44
2023-04-08T07:17:02.781Z,100674.09
2023-04-08T07:18:05.037Z,100667.11
2023-04-08T07:19:07.194Z,100667.89
2023-04-08T07:20:11.428Z,100675.82
2023-04-08T07:21:14.488Z,100672.20
2023-04-08T07:22:16.704Z,100673.78
2023-04-08T07:23:20.517Z,100673.70
2023-04-08T07:24:23.017Z,100664.64
2023-04-08T07:25:25.190Z,100675.31
2023-04-08T07:26:27.354Z,100667.31
2023-04-08T07:27:29.434Z,100673.63
2023-04-08T07:28:31.935Z,100668.96
2023-04-08T07:29:33.974Z,100669.83
2023-04-08T07:30:36.570Z,100669.83
2023-04-08T07:31:38.806Z,100672.34
2023-04-08T07:32:40.966Z,100671.23
2023-04-08T07:33:44.612Z,100675.71
2023-04-08T07:34:47.366Z,100672.02
2023-04-08T07:35:49.433Z,100669.35
2023-04-08T07:36:52.142Z,100676.26
2023-04-08T07:38:01.683Z,100673.51
2023-04-08T07:39:08.166Z,100669.81
2023-04-08T07:40:11.615Z,100671.38
2023-04-08T07:41:13.709Z,100672.76
2023-04-08T07:42:15.878Z,100668.98
2023-04-08T07:43:18.388Z,100672.27
2023-04-08T07:44:20.483Z,100674.59
2023-04-08T07:45:22.513Z,100673.40
2023-04-08T07:46:25.300Z,100673.90
2023-04-08T07:47:29.595Z,100670.13
2023-04-08T07:48:33.621Z,100669.02
2023-04-08T07:49:35.674Z,100669.88
2023-04-08T07:51:08.067Z,100668.77
2023-04-08T07:51:42.852Z,100669.59
2023-04-08T07:52:44.950Z,100665.98
2023-04-08T07:53:47.124Z,100674.77
2023-04-08T07:54:49.224Z,100664.17
2023-04-08T07:55:51.700Z,100664.08
2023-04-08T07:56:54.327Z,100670.45
2023-04-08T07:57:57.028Z,100670.57
2023-04-08T07:58:59.548Z,100664.45
2023-04-08T08:00:01.874Z,100664.53
2023-04-08T08:01:05.030Z,100669.02
2023-04-08T08:02:07.285Z,100668.93
2023-04-08T08:03:10.688Z,100670.66
2023-04-08T08:04:13.065Z,100660.83
2023-04-08T08:05:15.630Z,100658.16
2023-04-08T08:06:18.198Z,100658.74
2023-04-08T08:07:20.242Z,100667.53
2023-04-08T08:08:22.302Z,100667.37
2023-04-08T08:09:25.521Z,100668.23
2023-04-08T08:10:27.768Z,100665.47
2023-04-08T08:11:30.506Z,100661.86
2023-04-08T08:12:33.164Z,100668.92
2023-04-08T08:13:35.349Z,100673.41
2023-04-08T08:14:38.013Z,100674.19
2023-04-08T08:15:40.248Z,100668.73
2023-04-08T08:16:42.515Z,100660.70
2023-04-08T08:17:44.596Z,100664.24
2023-04-08T08:18:46.842Z,100660.70
2023-04-08T08:19:49.083Z,100661.48
2023-04-08T08:20:51.302Z,100662.27
2023-04-08T08:21:53.456Z,100663.98
2023-04-08T08:22:57.860Z,100661.32
2023-04-08T08:24:00.205Z,100670.11
2023-04-08T08:25:02.281Z,100666.58
2023-04-08T08:26:07.131Z,100665.63
2023-04-08T08:27:12.988Z,100660.20
2023-04-08T08:28:15.192Z,100656.59
2023-04-08T08:29:17.929Z,100660.20
2023-04-08T08:30:20.960Z,100660.13
2023-04-08T08:31:23.907Z,100660.78
2023-04-08T08:32:26.508Z,100659.09
2023-04-08T08:33:28.863Z,100653.54
2023-04-08T08:34:32.073Z,100658.71
2023-04-08T08:35:34.323Z,100659.58
2023-04-08T08:36:37.116Z,100660.44
2023-04-08T08:37:39.321Z,100662.16
2023-04-08T08:38:41.391Z,100661.22
2023-04-08T08:39:43.469Z,100662.85
2023-04-08T08:40:46.756Z,100659.15
2023-04-08T08:41:48.893Z,100658.16
2023-04-08T08:42:52.202Z,100654.55
2023-04-08T08:43:54.594Z,100661.62
2023-04-08T08:44:56.760Z,100664.20
2023-04-08T08:45:59.245Z,100662.30
2023-04-08T08:47:04.632Z,100659.55
2023-04-08T08:48:07.469Z,100643.33
2023-04-08T08:49:10.069Z,100657.48
2023-04-08T08:50:12.430Z,100657.27
2023-04-08T08:51:14.699Z,100659.86
2023-04-08T08:52:17.078Z,100655.38
2023-04-08T08:53:19.270Z,100655.38
2023-04-08T08:54:21.417Z,100651.75
2023-04-08T08:56:28.391Z,100648.72
2023-04-08T08:57:30.672Z,100651.13
2023-04-08T08:58:32.811Z,100658.03
2023-04-08T08:59:35.409Z,100657.08
2023-04-08T09:00:40.107Z,100657.77
2023-04-08T09:01:42.286Z,100651.47
2023-04-08T09:02:45.223Z,100654.05
2023-04-08T09:05:03.657Z,100649.59
2023-04-08T09:06:06.590Z,100663.41
2023-04-08T09:07:11.129Z,100657.02
2023-04-08T09:08:33.848Z,100652.45
2023-04-08T09:11:20.061Z,100656.86
2023-04-08T09:12:24.349Z,100653.03
2023-04-08T09:13:30.386Z,100658.17
2023-04-08T09:14:32.681Z,100659.90
2023-04-08T09:15:35.166Z,100650.74
2023-04-08T09:16:41.040Z,100653.23
2023-04-08T09:17:43.479Z,100658.28
2023-04-08T09:18:47.389Z,100653.61
2023-04-08T09:20:11.477Z,100656.97
2023-04-08T09:21:15.227Z,100656.69
2023-04-08T09:22:17.935Z,100656.48
2023-04-08T09:23:20.091Z,100658.97
2023-04-08T09:24:29.689Z,100657.06
2023-04-08T09:25:33.264Z,100657.06
2023-04-08T09:26:36.411Z,100655.16
2023-04-08T09:27:39.687Z,100661.28
2023-04-08T09:28:43.790Z,100660.42
2023-04-08T09:29:46.426Z,100652.48
2023-04-08T09:30:48.586Z,100657.83
2023-04-08T09:31:59.373Z,100661.38
2023-04-08T09:33:01.746Z,100658.70
2023-04-08T09:35:19.599Z,100661.46
2023-04-08T09:36:23.216Z,100663.00
2023-04-08T09:37:25.797Z,100671.98
2023-04-08T09:38:27.958Z,100665.77
2023-04-08T09:39:30.646Z,100663.19
2023-04-08T09:40:34.511Z,100664.05
2023-04-08T09:41:38.611Z,100664.91
2023-04-08T09:42:43.007Z,100664.91
2023-04-08T09:43:49.870Z,100661.47
2023-04-08T09:44:53.578Z,100662.33
2023-04-08T09:45:58.452Z,100664.05
2023-04-08T09:47:07.267Z,100654.97
2023-04-08T09:48:16.498Z,100662.91
2023-04-08T09:49:45.647Z,100661.74
2023-04-08T09:50:50.387Z,100659.92
2023-04-08T09:53:21.007Z,100658.01
2023-04-08T09:54:27.379Z,100657.73
2023-04-08T09:55:32.266Z,100664.72
2023-04-08T09:56:38.152Z,100663.77
2023-04-08T09:57:45.430Z,100661.83
2023-04-08T09:59:06.391Z,100669.86
2023-04-08T10:00:17.482Z,100664.31
2023-04-08T10:01:26.183Z,100668.53
2023-04-08T10:02:32.027Z,100667.39
2023-04-08T10:03:47.455Z,100677.15
2023-04-08T10:04:52.445Z,100672.52
2023-04-08T10:05:58.399Z,100672.52
2023-04-08T10:07:04.095Z,100673.52
2023-04-08T10:08:07.868Z,100681.55
2023-04-08T10:09:10.570Z,100678.02
2023-04-08T10:10:14.671Z,100664.48
2023-04-08T10:11:17.193Z,100666.21
2023-04-08T10:12:20.421Z,100670.84
2023-04-08T10:13:24.432Z,100675.20
2023-04-08T10:14:26.666Z,100677.15
2023-04-08T10:15:33.705Z,100674.34
2023-04-08T10:16:36.538Z,100669.84
2023-04-08T10:17:38.655Z,100675.11
2023-04-08T10:18:40.802Z,100665.07
2023-04-08T10:19:43.351Z,100670.33
2023-04-08T10:20:47.425Z,100677.41
2023-04-08T10:21:50.167Z,100674.73
2023-04-08T10:22:53.157Z,100670.14
2023-04-08T10:23:57.694Z,100671.00
2023-04-08T10:25:36.078Z,100669.22
2023-04-08T10:26:41.851Z,100676.36
2023-04-08T10:27:44.982Z,100679.84
2023-04-08T10:28:47.621Z,100681.72
2023-04-08T10:29:49.568Z,100678.13
2023-04-08T10:30:54.318Z,100671.96
2023-04-08T10:31:56.709Z,100674.64
2023-04-08T10:32:59.593Z,100672.91
2023-04-08T10:34:16.277Z,100672.91
2023-04-08T10:35:29.431Z,100674.64
2023-04-08T10:36:31.803Z,100669.28
2023-04-08T10:37:34.001Z,100669.22
2023-04-08T10:38:36.682Z,100675.50
2023-04-08T10:39:38.890Z,100664.78
2023-04-08T10:40:42.126Z,100671.00
2023-04-08T10:41:45.428Z,100671.00
2023-04-08T10:42:49.855Z,100670.08
2023-04-08T10:43:52.280Z,100663.77
2023-04-08T10:44:58.684Z,100660.13
2023-04-08T10:46:02.054Z,100663.45
2023-04-08T10:47:04.210Z,100658.00
2023-04-08T10:48:18.153Z,100670.24
2023-04-08T10:49:20.387Z,100661.25
2023-04-08T10:50:23.063Z,100661.92
2023-04-08T10:51:25.689Z,100667.91
2023-04-08T10:52:28.356Z,100659.69
2023-04-08T10:53:33.995Z,100663.03
2023-04-08T10:54:36.987Z,100661.88
2023-04-08T10:55:39.212Z,100658.97
2023-04-08T10:56:52.071Z,100656.09
2023-04-08T10:57:57.000Z,100661.17
2023-04-08T10:58:59.103Z,100658.39
2023-04-08T11:00:02.075Z,100651.97
2023-04-08T11:01:05.814Z,100650.78
2023-04-08T11:02:13.547Z,100656.05
2023-04-08T11:03:16.145Z,100653.27
2023-04-08T11:04:18.487Z,100652.20
2023-04-08T11:05:22.873Z,100653.83
2023-04-08T11:06:25.637Z,100647.51
2023-04-08T11:07:27.808Z,100648.27
2023-04-08T11:08:33.587Z,100645.59
2023-04-08T11:09:37.233Z,100637.41
2023-04-08T11:10:40.115Z,100651.48
2023-04-08T11:11:44.347Z,100637.88
2023-04-08T11:12:47.414Z,100648.40
2023-04-08T11:13:53.793Z,100648.20
2023-04-08T11:14:54.695Z,100642.60
2023-04-08T11:16:00.382Z,100643.27
2023-04-08T11:17:03.435Z,100645.84
2023-04-08T11:18:05.869Z,100643.06
2023-04-08T11:19:07.930Z,100639.42
2023-04-08T11:20:10.929Z,100636.64
2023-04-08T11:21:13.079Z,100639.22
2023-04-08T11:22:16.563Z,100631.03
2023-04-08T11:23:19.061Z,100639.08
2023-04-08T11:24:21.440Z,100636.20
2023-04-08T11:25:23.832Z,100641.36
2023-04-08T11:26:27.066Z,100635.79
2023-04-08T11:27:29.468Z,100645.46
2023-04-08T11:28:32.292Z,100634.39
2023-04-08T11:29:35.007Z,100635.94
2023-04-08T11:30:41.461Z,100629.40
2023-04-08T11:31:44.610Z,100629.06
2023-04-08T11:32:47.538Z,100627.02
2023-04-08T11:33:53.468Z,100620.48
2023-04-08T11:34:55.759Z,100624.44
2023-04-08T11:36:01.720Z,100628.53
2023-04-08T11:37:03.971Z,100616.52
2023-04-08T11:38:06.131Z,100619.70
2023-04-08T11:39:11.764Z,100616.70
2023-04-08T11:40:18.002Z,100615.63
2023-04-08T11:41:20.369Z,100615.42
2023-04-08T11:42:32.945Z,100615.06
2023-04-08T11:43:35.469Z,100618.41
2023-04-08T11:44:38.078Z,100607.45
2023-04-08T11:45:42.471Z,100611.74
2023-04-08T11:46:52.419Z,100609.66
2023-04-08T11:47:55.631Z,100613.11
2023-04-08T11:50:10.162Z,100600.92
2023-04-08T11:51:12.365Z,100596.62
2023-04-08T11:52:14.631Z,100601.78
2023-04-08T11:53:19.423Z,100601.56
2023-04-08T11:54:32.249Z,100599.62
2023-04-08T12:10:16.443Z,100578.17
2023-04-08T12:11:20.236Z,100577.78
2023-04-08T12:12:22.656Z,100576.56
2023-04-08T12:13:24.914Z,100577.96
2023-04-08T12:14:28.609Z,100575.80
2023-04-08T12:15:31.255Z,100570.21
2023-04-08T12:16:33.732Z,100568.77
2023-04-08T12:17:36.123Z,100573.82
2023-04-08T12:18:38.517Z,100570.66
2023-04-08T12:19:40.732Z,100577.45
2023-04-08T12:20:43.758Z,100577.84
2023-04-08T12:21:46.098Z,100574.81
2023-04-08T12:22:49.381Z,100583.73
2023-04-08T12:23:52.153Z,100589.87
2023-04-08T12:24:54.838Z,100592.66
2023-04-08T12:25:57.178Z,100594.11
2023-04-08T12:26:59.655Z,100593.99
2023-04-08T12:28:02.017Z,100592.96
2023-04-08T12:29:04.133Z,100591.28
2023-04-08T12:30:09.463Z,100588.64
2023-04-08T12:31:12.176Z,100597.59
2023-04-08T12:32:14.876Z,100589.41
2023-04-08T12:33:17.069Z,100592.02
2023-04-08T12:34:19.396Z,100588.81
2023-04-08T12:35:21.723Z,100587.41
2023-04-08T12:36:24.297Z,100585.04
2023-04-08T12:37:28.642Z,100582.59
2023-04-08T12:38:31.105Z,100583.56